createdAt,value
2023-04-01T00:01:20.852Z,3.60
2023-04-01T00:03:48.344Z,3.87
2023-04-01T00:06:19.578Z,4.10
2023-04-01T00:08:49.139Z,3.70
2023-04-01T00:11:17.050Z,3.40
2023-04-01T00:13:47.487Z,3.90
2023-04-01T00:18:48.516Z,3.20
2023-04-01T00:21:16.277Z,4.10
2023-04-01T00:23:43.339Z,3.50
2023-04-01T00:26:10.534Z,3.90
2023-04-01T00:28:37.569Z,4.30
2023-04-01T00:31:12.236Z,3.67
2023-04-01T00:33:41.382Z,3.20
2023-04-01T00:36:17.048Z,2.80
2023-04-01T00:38:47.868Z,3.63
2023-04-01T00:41:18.193Z,3.30
2023-04-01T00:43:51.917Z,3.73
2023-04-01T00:46:20.453Z,3.77
2023-04-01T00:48:55.372Z,3.53
2023-04-01T00:51:27.394Z,3.00
2023-04-01T00:53:59.596Z,3.70
2023-04-01T00:56:34.682Z,3.73
2023-04-01T00:59:11.890Z,3.90
2023-04-01T01:01:44.282Z,3.70
2023-04-01T01:04:40.906Z,3.80
2023-04-01T01:07:44.273Z,3.70
2023-04-01T01:10:29.967Z,3.93
2023-04-01T01:13:11.674Z,3.80
2023-04-01T01:16:04.140Z,3.23
2023-04-01T01:18:59.611Z,3.87
2023-04-01T01:21:47.468Z,3.47
2023-04-01T01:24:38.287Z,3.70
2023-04-01T01:27:11.527Z,3.00
2023-04-01T01:30:09.322Z,2.97
2023-04-01T01:33:00.548Z,3.20
2023-04-01T01:35:36.480Z,3.90
2023-04-01T01:38:30.320Z,3.80
2023-04-01T01:40:58.854Z,4.00
2023-04-01T01:43:32.314Z,3.50
2023-04-01T01:46:06.644Z,3.63
2023-04-01T01:48:36.414Z,3.70
2023-04-01T01:51:06.720Z,4.23
2023-04-01T01:53:33.714Z,4.40
2023-04-01T01:56:00.914Z,4.63
2023-04-01T01:58:41.291Z,3.93
2023-04-01T02:01:19.046Z,3.40
2023-04-01T02:03:49.500Z,4.30
2023-04-01T02:06:25.403Z,3.30
2023-04-01T02:09:02.237Z,3.90
2023-04-01T02:11:35.456Z,4.50
2023-04-01T02:14:11.284Z,3.70
2023-04-01T02:17:00.754Z,3.50
2023-04-01T02:19:51.618Z,2.90
2023-04-01T02:22:26.024Z,3.50
2023-04-01T02:25:02.532Z,3.43
2023-04-01T02:27:33.084Z,3.90
2023-04-01T02:30:00.346Z,3.17
2023-04-01T02:32:32.572Z,3.97
2023-04-01T02:35:01.020Z,3.57
2023-04-01T02:37:30.178Z,3.67
2023-04-01T02:40:02.316Z,3.70
2023-04-01T02:42:29.270Z,3.73
2023-04-01T02:44:56.193Z,4.13
2023-04-01T02:47:23.147Z,3.53
2023-04-01T02:49:58.798Z,3.80
2023-04-01T02:52:27.136Z,3.67
2023-04-01T02:54:54.891Z,4.43
2023-04-01T02:57:22.245Z,4.33
2023-04-01T02:59:49.658Z,3.50
2023-04-01T03:02:21.264Z,3.73
2023-04-01T03:04:50.652Z,3.37
2023-04-01T03:07:20.331Z,3.60
2023-04-01T03:09:49.431Z,3.23
2023-04-01T03:12:18.655Z,3.37
2023-04-01T03:14:45.754Z,3.43
2023-04-01T03:17:12.859Z,3.30
2023-04-01T03:19:42.078Z,3.77
2023-04-01T03:22:12.765Z,3.00
2023-04-01T03:24:39.787Z,3.17
2023-04-01T03:27:06.708Z,3.40
2023-04-01T03:29:38.354Z,3.30
2023-04-01T03:32:05.701Z,3.23
2023-04-01T03:34:36.118Z,2.63
2023-04-01T03:37:03.037Z,2.70
2023-04-01T03:39:32.642Z,2.90
2023-04-01T03:42:00.342Z,2.77
2023-04-01T03:44:27.432Z,2.80
2023-04-01T03:46:54.459Z,4.03
2023-04-01T03:49:23.696Z,3.10
2023-04-01T03:51:50.844Z,3.50
2023-04-01T03:54:21.751Z,3.10
2023-04-01T03:56:48.964Z,3.17
2023-04-01T03:59:16.097Z,3.20
2023-04-01T04:01:43.072Z,3.00
2023-04-01T04:04:14.142Z,3.60
2023-04-01T04:06:41.304Z,3.30
2023-04-01T04:09:08.279Z,3.40
2023-04-01T04:11:35.247Z,2.87
2023-04-01T04:14:06.964Z,2.87
2023-04-01T04:16:39.992Z,3.30
2023-04-01T04:19:07.058Z,3.80
2023-04-01T04:21:34.125Z,3.50
2023-04-01T04:24:04.567Z,3.50
2023-04-01T04:26:31.649Z,3.23
2023-04-01T04:29:02.221Z,3.33
2023-04-01T04:31:29.401Z,3.80
2023-04-01T04:33:59.449Z,4.83
2023-04-01T04:36:26.452Z,3.53
2023-04-01T04:38:53.489Z,3.00
2023-04-01T04:41:23.455Z,3.97
2023-04-01T04:43:56.584Z,3.93
2023-04-01T04:46:26.693Z,3.77
2023-04-01T04:48:56.141Z,3.90
2023-04-01T04:51:24.253Z,3.67
2023-04-01T04:53:53.881Z,3.80
2023-04-01T04:56:27.284Z,4.23
2023-04-01T04:58:56.551Z,3.80
2023-04-01T05:01:23.917Z,4.10
2023-04-01T05:03:53.357Z,3.50
2023-04-01T05:06:23.382Z,4.00
2023-04-01T05:08:50.769Z,4.50
2023-04-01T05:11:21.539Z,3.93
2023-04-01T05:13:48.791Z,4.23
2023-04-01T05:16:20.704Z,4.47
2023-04-01T05:18:48.616Z,3.93
2023-04-01T05:21:17.022Z,3.60
2023-04-01T05:23:46.647Z,4.30
2023-04-01T05:26:15.627Z,4.20
2023-04-01T05:28:45.923Z,3.63
2023-04-01T05:31:14.964Z,3.60
2023-04-01T05:33:41.981Z,4.17
2023-04-01T05:36:15.303Z,3.80
2023-04-01T05:38:46.959Z,4.57
2023-04-01T05:41:15.506Z,3.80
2023-04-01T05:43:45.249Z,3.40
2023-04-01T05:46:12.263Z,3.93
2023-04-01T05:48:39.651Z,4.00
2023-04-01T05:51:17.558Z,3.87
2023-04-01T05:53:45.001Z,3.70
2023-04-01T05:56:12.363Z,3.87
2023-04-01T05:58:39.551Z,4.20
2023-04-01T06:01:16.306Z,4.50
2023-04-01T06:03:43.848Z,3.53
2023-04-01T06:06:26.266Z,3.77
2023-04-01T06:08:54.712Z,3.30
2023-04-01T06:11:36.072Z,4.10
2023-04-01T06:14:21.109Z,4.93
2023-04-01T06:17:08.354Z,4.57
2023-04-01T06:20:32.210Z,4.53
2023-04-01T06:23:43.653Z,4.63
2023-04-01T06:26:25.255Z,5.30
2023-04-01T06:29:13.341Z,4.87
2023-04-01T06:32:17.578Z,4.70
2023-04-01T06:35:05.430Z,5.20
2023-04-01T06:38:11.791Z,4.63
2023-04-01T06:40:47.437Z,4.57
2023-04-01T06:43:43.060Z,5.27
2023-04-01T06:46:54.130Z,4.43
2023-04-01T06:49:42.707Z,2.17
2023-04-01T06:53:03.456Z,1.70
2023-04-01T06:55:39.061Z,1.27
2023-04-01T06:58:20.843Z,1.40
2023-04-01T07:01:00.371Z,1.30
2023-04-01T07:04:07.130Z,1.40
2023-04-01T07:06:41.801Z,1.30
2023-04-01T07:09:21.215Z,1.20
2023-04-01T07:11:48.830Z,1.13
2023-04-01T07:14:23.508Z,0.97
2023-04-01T07:17:15.444Z,1.10
2023-04-01T07:20:04.024Z,1.17
2023-04-01T07:22:46.878Z,0.70
2023-04-01T07:25:19.279Z,0.90
2023-04-01T07:27:48.920Z,0.83
2023-04-01T07:30:26.064Z,0.97
2023-04-01T07:32:54.369Z,0.90
2023-04-01T07:35:42.663Z,0.90
2023-04-01T07:38:53.095Z,0.73
2023-04-01T07:42:00.717Z,1.03
2023-04-01T07:45:19.668Z,0.70
2023-04-01T07:48:01.760Z,0.70
2023-04-01T07:51:11.702Z,0.97
2023-04-01T07:53:55.541Z,0.70
2023-04-01T07:56:50.076Z,0.80
2023-04-01T07:59:39.661Z,0.80
2023-04-01T08:02:26.570Z,1.10
2023-04-01T08:05:09.072Z,0.70
2023-04-01T08:07:53.292Z,3.03
2023-04-01T08:10:45.223Z,1.00
2023-04-01T08:13:17.935Z,0.80
2023-04-01T08:15:59.599Z,0.70
2023-04-01T08:18:53.873Z,1.07
2023-04-01T08:21:45.636Z,1.10
2023-04-01T08:24:44.701Z,1.00
2023-04-01T08:27:27.678Z,0.90
2023-04-01T08:30:10.371Z,0.63
2023-04-01T08:32:43.217Z,0.67
2023-04-01T08:35:29.817Z,0.90
2023-04-01T08:38:12.227Z,0.73
2023-04-01T08:40:48.350Z,0.73
2023-04-01T08:44:02.180Z,1.10
2023-04-01T08:46:42.935Z,0.83
2023-04-01T08:49:23.096Z,0.70
2023-04-01T08:52:27.698Z,0.80
2023-04-01T08:55:01.464Z,0.80
2023-04-01T08:58:04.066Z,0.70
2023-04-01T09:00:52.285Z,0.80
2023-04-01T09:03:38.529Z,0.80
2023-04-01T09:06:31.483Z,0.50
2023-04-01T09:09:41.882Z,0.77
2023-04-01T09:12:49.272Z,0.70
2023-04-01T09:15:35.249Z,1.03
2023-04-01T09:18:14.630Z,0.80
2023-04-01T09:21:16.452Z,0.70
2023-04-01T09:24:14.038Z,0.60
2023-04-01T09:27:05.123Z,0.70
2023-04-01T09:30:11.794Z,0.90
2023-04-01T09:33:01.078Z,0.70
2023-04-01T09:36:13.608Z,0.90
2023-04-01T09:39:00.127Z,0.90
2023-04-01T09:41:37.104Z,0.90
2023-04-01T09:44:52.960Z,1.00
2023-04-01T09:48:05.770Z,0.77
2023-04-01T09:50:50.608Z,0.97
2023-04-01T09:53:36.640Z,0.90
2023-04-01T09:56:46.352Z,0.93
2023-04-01T09:59:59.868Z,1.07
2023-04-01T10:03:09.077Z,1.10
2023-04-01T10:06:07.758Z,0.80
2023-04-01T10:09:06.295Z,0.80
2023-04-01T10:12:03.333Z,1.70
2023-04-01T10:14:57.970Z,0.90
2023-04-01T10:18:21.408Z,0.70
2023-04-01T10:21:16.124Z,0.93
2023-04-01T10:24:33.125Z,1.03
2023-04-01T10:27:20.088Z,0.93
2023-04-01T10:30:23.920Z,0.80
2023-04-01T10:33:21.687Z,1.33
2023-04-01T10:36:27.203Z,1.00
2023-04-01T10:39:25.828Z,1.10
2023-04-01T10:42:03.430Z,0.70
2023-04-01T10:44:55.305Z,0.97
2023-04-01T10:48:03.860Z,0.90
2023-04-01T10:50:53.797Z,1.00
2023-04-01T10:53:44.623Z,0.97
2023-04-01T10:56:37.453Z,1.00
2023-04-01T10:59:55.389Z,1.00
2023-04-01T11:03:28.602Z,1.10
2023-04-01T11:06:25.929Z,0.90
2023-04-01T11:09:24.756Z,0.80
2023-04-01T11:12:16.389Z,0.70
2023-04-01T11:15:28.675Z,1.23
2023-04-01T11:18:43.776Z,0.70
2023-04-01T11:21:55.379Z,0.90
2023-04-01T11:25:02.694Z,0.90
2023-04-01T11:28:03.682Z,0.80
2023-04-01T11:30:41.470Z,0.80
2023-04-01T11:33:24.640Z,0.80
2023-04-01T11:36:28.044Z,0.73
2023-04-01T11:39:46.245Z,0.70
2023-04-01T11:42:27.530Z,0.50
2023-04-01T11:45:29.806Z,0.90
2023-04-01T11:48:30.605Z,1.00
2023-04-01T11:51:37.197Z,0.70
2023-04-01T11:54:26.037Z,0.80
2023-04-01T11:57:26.855Z,0.70
2023-04-01T12:00:22.680Z,1.17
2023-04-01T12:03:27.469Z,0.83
2023-04-01T12:06:09.218Z,0.97
2023-04-01T12:09:31.852Z,0.70
2023-04-01T12:12:47.742Z,0.77
2023-04-01T12:15:32.185Z,0.87
2023-04-01T12:18:29.482Z,0.83
2023-04-01T12:21:46.126Z,0.87
2023-04-01T12:24:33.960Z,1.30
2023-04-01T12:27:20.683Z,1.57
2023-04-01T12:29:59.021Z,1.50
2023-04-01T12:32:48.433Z,1.57
2023-04-01T12:35:28.680Z,1.53
2023-04-01T12:38:13.908Z,1.60
2023-04-01T12:41:05.779Z,1.40
2023-04-01T12:44:15.182Z,1.33
2023-04-01T12:47:19.667Z,1.80
2023-04-01T12:50:30.973Z,2.27
2023-04-01T12:53:27.214Z,3.10
2023-04-01T12:55:57.231Z,3.13
2023-04-01T12:59:14.892Z,2.20
2023-04-01T13:02:01.198Z,2.20
2023-04-01T13:05:24.279Z,2.50
2023-04-01T13:08:03.366Z,2.30
2023-04-01T13:10:55.222Z,2.07
2023-04-01T13:13:24.722Z,2.80
2023-04-01T13:16:28.204Z,2.30
2023-04-01T13:19:11.683Z,2.43
2023-04-01T13:22:18.908Z,3.30
2023-04-01T13:25:34.045Z,3.07
2023-04-01T13:28:15.020Z,3.73
2023-04-01T13:30:44.767Z,2.70
2023-04-01T13:33:43.084Z,2.63
2023-04-01T13:37:06.893Z,2.50
2023-04-01T13:40:16.694Z,2.37
2023-04-01T13:43:03.865Z,2.03
2023-04-01T13:46:11.623Z,1.97
2023-04-01T13:49:21.159Z,2.57
2023-04-01T13:52:38.837Z,1.60
2023-04-01T13:55:27.249Z,2.10
2023-04-01T13:58:37.828Z,2.30
2023-04-01T14:01:33.672Z,2.77
2023-04-01T14:04:37.739Z,2.63
2023-04-01T14:08:05.824Z,3.10
2023-04-01T14:11:05.708Z,2.63
2023-04-01T14:14:02.966Z,2.90
2023-04-01T14:16:36.124Z,2.43
2023-04-01T14:19:46.376Z,2.63
2023-04-01T14:23:09.436Z,2.57
2023-04-01T14:26:16.354Z,2.50
2023-04-01T14:28:58.415Z,2.17
2023-04-01T14:31:50.342Z,2.73
2023-04-01T14:34:33.935Z,2.40
2023-04-01T14:38:06.018Z,3.07
2023-04-01T14:41:12.490Z,2.50
2023-04-01T14:44:17.409Z,2.60
2023-04-01T14:47:10.216Z,2.53
2023-04-01T14:50:03.867Z,2.37
2023-04-01T14:52:39.665Z,2.77
2023-04-01T14:55:35.217Z,2.50
2023-04-01T14:58:08.305Z,2.97
2023-04-01T15:01:02.974Z,2.40
2023-04-01T15:04:01.235Z,2.43
2023-04-01T15:06:59.546Z,2.60
2023-04-01T15:10:20.861Z,2.70
2023-04-01T15:13:14.328Z,2.80
2023-04-01T15:16:16.476Z,3.00
2023-04-01T15:18:52.370Z,2.97
2023-04-01T15:21:24.107Z,2.80
2023-04-01T15:24:15.790Z,2.83
2023-04-01T15:27:29.021Z,3.00
2023-04-01T15:30:19.444Z,3.27
2023-04-01T15:33:16.654Z,5.00
2023-04-01T15:35:59.687Z,3.17
2023-04-01T15:38:32.488Z,3.43
2023-04-01T15:41:42.781Z,2.90
2023-04-01T15:45:11.350Z,2.83
2023-04-01T15:47:46.055Z,4.00
2023-04-01T15:50:28.757Z,3.90
2023-04-01T15:53:29.707Z,3.37
2023-04-01T15:56:24.386Z,2.87
2023-04-01T15:59:21.966Z,3.90
2023-04-01T16:02:52.498Z,3.70
2023-04-01T16:06:00.899Z,4.47
2023-04-01T16:08:45.435Z,4.57
2023-04-01T16:11:22.463Z,4.03
2023-04-01T16:13:55.085Z,5.13
2023-04-01T16:16:48.485Z,4.60
2023-04-01T16:19:33.119Z,5.50
2023-04-01T16:22:25.478Z,4.50
2023-04-01T16:25:20.185Z,5.53
2023-04-01T16:28:17.319Z,6.33
2023-04-01T16:31:01.368Z,10.43
2023-04-01T16:33:46.179Z,6.13
2023-04-01T16:36:56.347Z,4.30
2023-04-01T16:39:57.386Z,5.50
2023-04-01T16:42:50.420Z,4.57
2023-04-01T16:45:29.716Z,4.70
2023-04-01T16:48:08.379Z,5.40
2023-04-01T16:51:06.352Z,4.67
2023-04-01T16:53:49.662Z,5.47
2023-04-01T16:56:37.920Z,4.30
2023-04-01T16:59:28.367Z,4.50
2023-04-01T17:02:08.124Z,4.10
2023-04-01T17:05:14.113Z,4.50
2023-04-01T17:08:26.089Z,4.87
2023-04-01T17:11:23.812Z,4.30
2023-04-01T17:14:25.937Z,4.80
2023-04-01T17:17:12.450Z,4.90
2023-04-01T17:20:13.816Z,4.03
2023-04-01T17:22:53.824Z,4.93
2023-04-01T17:25:39.626Z,4.83
2023-04-01T17:28:48.358Z,4.30
2023-04-01T17:32:04.064Z,4.80
2023-04-01T17:35:13.200Z,4.90
2023-04-01T17:38:20.574Z,4.00
2023-04-01T17:41:14.548Z,4.83
2023-04-01T17:43:52.866Z,4.50
2023-04-01T17:46:43.643Z,4.43
2023-04-01T17:49:21.240Z,4.57
2023-04-01T17:52:01.324Z,5.27
2023-04-01T17:55:05.852Z,4.77
2023-04-01T17:58:17.144Z,5.40
2023-04-01T18:01:19.440Z,5.30
2023-04-01T18:04:25.979Z,4.87
2023-04-01T18:07:25.043Z,5.80
2023-04-01T18:10:22.415Z,5.57
2023-04-01T18:13:20.284Z,7.80
2023-04-01T18:16:19.338Z,8.50
2023-04-01T18:19:33.391Z,5.63
2023-04-01T18:22:28.953Z,6.80
2023-04-01T18:25:20.370Z,7.70
2023-04-01T18:28:12.509Z,6.13
2023-04-01T18:30:44.664Z,7.50
2023-04-01T18:33:47.394Z,6.37
2023-04-01T18:36:43.086Z,6.50
2023-04-01T18:39:26.702Z,6.67
2023-04-01T18:42:56.583Z,6.07
2023-04-01T18:46:06.837Z,5.87
2023-04-01T18:49:01.109Z,6.50
2023-04-01T18:51:47.019Z,5.80
2023-04-01T18:54:44.156Z,5.60
2023-04-01T18:57:20.363Z,4.87
2023-04-01T18:59:56.681Z,5.13
2023-04-01T19:02:37.431Z,3.90
2023-04-01T19:05:24.888Z,4.70
2023-04-01T19:07:57.760Z,4.17
2023-04-01T19:10:46.541Z,4.30
2023-04-01T19:13:45.672Z,4.33
2023-04-01T19:16:44.919Z,5.17
2023-04-01T19:19:30.001Z,4.23
2023-04-01T19:22:24.664Z,5.13
2023-04-01T19:25:25.304Z,4.07
2023-04-01T19:28:05.818Z,4.33
2023-04-01T19:31:00.241Z,4.57
2023-04-01T19:33:34.794Z,4.47
2023-04-01T19:36:17.537Z,5.30
2023-04-01T19:39:24.994Z,4.27
2023-04-01T19:42:29.906Z,4.73
2023-04-01T19:45:15.419Z,4.40
2023-04-01T19:48:04.206Z,4.13
2023-04-01T19:50:53.206Z,4.60
2023-04-01T19:53:44.836Z,3.50
2023-04-01T19:56:22.481Z,3.93
2023-04-01T19:59:30.518Z,4.20
2023-04-01T20:02:05.064Z,3.70
2023-04-01T20:04:51.165Z,4.40
2023-04-01T20:07:35.701Z,3.70
2023-04-01T20:10:43.386Z,3.47
2023-04-01T20:13:28.951Z,3.20
2023-04-01T20:16:12.020Z,3.27
2023-04-01T20:18:56.953Z,3.83
2023-04-01T20:21:49.611Z,3.40
2023-04-01T20:24:19.325Z,3.50
2023-04-01T20:26:52.994Z,3.13
2023-04-01T20:29:42.085Z,3.43
2023-04-01T20:33:20.624Z,2.90
2023-04-01T20:36:17.760Z,3.73
2023-04-01T20:39:12.153Z,3.37
2023-04-01T20:41:53.256Z,3.30
2023-04-01T20:44:41.792Z,3.80
2023-04-01T20:47:40.485Z,2.93
2023-04-01T20:50:19.228Z,3.93
2023-04-01T20:53:09.856Z,2.77
2023-04-01T20:55:48.780Z,2.87
2023-04-01T20:58:54.642Z,3.13
2023-04-01T21:02:08.147Z,2.33
2023-04-01T21:04:52.356Z,2.47
2023-04-01T21:07:33.806Z,2.43
2023-04-01T21:10:13.583Z,2.70
2023-04-01T21:13:11.782Z,2.80
2023-04-01T21:15:52.742Z,2.90
2023-04-01T21:18:56.749Z,3.17
2023-04-01T21:21:55.450Z,3.23
2023-04-01T21:24:41.193Z,2.60
2023-04-01T21:27:17.022Z,3.30
2023-04-01T21:30:16.175Z,1.70
2023-04-01T21:33:09.569Z,1.80
2023-04-01T21:36:09.254Z,2.00
2023-04-01T21:39:08.454Z,1.83
2023-04-01T21:42:07.946Z,1.80
2023-04-01T21:45:05.095Z,1.63
2023-04-01T21:48:09.536Z,1.30
2023-04-01T21:51:14.745Z,1.70
2023-04-01T21:54:03.300Z,1.97
2023-04-01T21:57:22.119Z,1.53
2023-04-01T22:00:01.111Z,1.70
2023-04-01T22:03:04.212Z,2.03
2023-04-01T22:05:53.918Z,1.70
2023-04-01T22:09:12.550Z,1.97
2023-04-01T22:12:06.758Z,1.63
2023-04-01T22:15:10.697Z,1.60
2023-04-01T22:18:05.385Z,1.87
2023-04-01T22:20:36.550Z,1.20
2023-04-01T22:23:30.069Z,1.20
2023-04-01T22:26:42.090Z,1.10
2023-04-01T22:29:21.332Z,1.30
2023-04-01T22:32:12.522Z,1.80
2023-04-01T22:35:16.323Z,1.23
2023-04-01T22:38:01.647Z,1.47
2023-04-01T22:40:37.450Z,1.77
2023-04-01T22:43:16.654Z,1.20
2023-04-01T22:46:26.312Z,1.97
2023-04-01T22:49:03.976Z,1.10
2023-04-01T22:51:52.590Z,1.33
2023-04-01T22:54:59.544Z,1.07
2023-04-01T22:57:52.047Z,1.53
2023-04-01T23:00:30.295Z,1.40
2023-04-01T23:03:24.757Z,2.40
2023-04-01T23:06:04.461Z,1.57
2023-04-01T23:09:09.004Z,1.40
2023-04-01T23:11:43.660Z,1.50
2023-04-01T23:14:24.315Z,1.30
2023-04-01T23:17:22.673Z,2.00
2023-04-01T23:19:55.622Z,0.97
2023-04-01T23:22:32.928Z,1.80
2023-04-01T23:25:21.892Z,1.23
2023-04-01T23:28:43.861Z,1.60
2023-04-01T23:31:43.657Z,1.30
2023-04-01T23:34:13.704Z,1.07
2023-04-01T23:36:53.339Z,1.60
2023-04-01T23:39:29.167Z,1.60
2023-04-01T23:42:13.671Z,1.60
2023-04-01T23:44:41.170Z,1.30
2023-04-01T23:47:16.962Z,1.60
2023-04-01T23:49:51.722Z,1.90
2023-04-01T23:52:34.038Z,1.43
2023-04-01T23:55:13.243Z,1.23
2023-04-01T23:57:40.674Z,1.30
